Time;durP1;ratioP1;P1;durP2;ratioP2;P2;SDS_P1;SDS_P2;PMS_P1;PMS_P2;Temp;Humidity;BMP_temperature;BMP_pressure;BME280_temperature;BME280_humidity;BME280_pressure;Samples;Min_cycle;Max_cycle;Signal;HPM_P1;HPM_P2
2021/12/09 00:14:28;;;;;;;0.45;0.40;;;23.00;60.70;;;;;;31542945;28;20099;-45
2021/12/09 00:29:30;;;;;;;0.30;0.30;;;22.90;60.40;;;;;;31560153;28;20099;-43
2021/12/09 00:44:32;;;;;;;102.45;84.85;;;22.90;60.50;;;;;;31504926;28;20049;-43
2021/12/09 00:59:42;;;;;;;5.35;4.85;;;22.80;59.90;;;;;;31625630;28;20068;-36
2021/12/09 01:14:47;;;;;;;2.30;2.10;;;22.70;60.10;;;;;;31629058;28;20068;-35
2021/12/09 01:29:53;;;;;;;1.50;1.27;;;23.10;60.40;;;;;;31628046;28;20103;-36
2021/12/09 01:44:57;;;;;;;1.15;1.05;;;23.30;60.00;;;;;;31624271;28;20052;-42
2021/12/09 01:59:59;;;;;;;0.70;0.70;;;23.30;59.70;;;;;;31558722;28;20048;-52
2021/12/09 02:15:02;;;;;;;0.40;0.40;;;23.10;59.80;;;;;;31633166;28;20037;-54
2021/12/09 02:30:04;;;;;;;0.35;0.35;;;23.00;59.80;;;;;;31633443;28;20115;-54
2021/12/09 02:45:09;;;;;;;0.35;0.35;;;22.90;60.10;;;;;;31672192;28;20098;-50
2021/12/09 03:00:12;;;;;;;0.40;0.20;;;22.80;60.40;;;;;;31691619;28;20108;-51
2021/12/09 03:15:15;;;;;;;0.10;0.10;;;22.80;60.40;;;;;;31564895;28;20044;-51
2021/12/09 03:30:18;;;;;;;0.20;0.20;;;23.30;60.30;;;;;;31716037;28;20104;-43
2021/12/09 03:45:20;;;;;;;0.10;0.10;;;23.20;60.10;;;;;;31629110;28;20049;-44
2021/12/09 04:00:28;;;;;;;0.10;0.10;;;23.10;60.30;;;;;;31668525;28;20047;-54
2021/12/09 04:15:31;;;;;;;0.20;0.10;;;23.00;60.40;;;;;;31577274;28;20508;-54
2021/12/09 04:30:33;;;;;;;0.55;0.10;;;22.90;60.60;;;;;;31590277;28;20072;-54
2021/12/09 04:45:38;;;;;;;0.10;0.10;;;22.80;60.60;;;;;;31633656;28;20047;-52
2021/12/09 05:00:40;;;;;;;0.82;0.43;;;22.70;60.80;;;;;;31545618;28;20059;-45
2021/12/09 05:15:43;;;;;;;2.40;0.90;;;23.20;60.60;;;;;;31555523;28;20442;-38
2021/12/09 05:46:08;;;;;;;3.70;1.45;;;23.10;60.40;;;;;;31576627;28;20088;-43
2021/12/09 06:01:11;;;;;;;5.32;2.05;;;22.90;60.60;;;;;;31598393;28;20049;-38
2021/12/09 06:16:13;;;;;;;4.65;2.42;;;22.80;60.80;;;;;;31621554;28;20044;-39
2021/12/09 06:31:15;;;;;;;3.25;0.98;;;22.70;60.60;;;;;;31600216;28;20051;-38
2021/12/09 06:46:17;;;;;;;4.15;1.33;;;23.00;60.60;;;;;;31577962;28;20040;-39
2021/12/09 07:01:24;;;;;;;1.63;1.00;;;23.20;60.20;;;;;;31624503;28;20049;-45
2021/12/09 07:16:26;;;;;;;1.60;1.20;;;23.10;60.00;;;;;;31642674;28;20048;-45
2021/12/09 07:31:28;;;;;;;2.55;1.10;;;23.00;60.10;;;;;;31604714;28;20079;-44
2021/12/09 07:46:31;;;;;;;3.45;1.50;;;22.90;60.10;;;;;;31576577;28;20036;-46
2021/12/09 08:01:33;;;;;;;5.68;3.45;;;22.70;60.10;;;;;;31664494;28;20040;-47
2021/12/09 08:16:37;;;;;;;20.58;15.88;;;22.60;57.70;;;;;;31602488;28;20044;-47
2021/12/09 08:31:39;;;;;;;25.25;22.25;;;22.80;55.90;;;;;;31603346;28;20056;-41
2021/12/09 08:46:50;;;;;;;27.88;22.15;;;22.80;54.20;;;;;;31605953;28;20070;-44
2021/12/09 09:01:52;;;;;;;29.30;19.27;;;23.00;53.40;;;;;;31648943;28;20099;-37
2021/12/09 09:16:54;;;;;;;37.63;30.45;;;23.20;53.80;;;;;;31586429;28;20053;-51
2021/12/09 09:31:56;;;;;;;41.78;31.92;;;23.00;53.80;;;;;;31628722;28;20078;-52
2021/12/09 09:47:01;;;;;;;35.00;29.55;;;22.90;54.50;;;;;;31625366;28;20085;-57
2021/12/09 10:02:04;;;;;;;35.40;28.00;;;22.80;55.20;;;;;;31643443;28;20040;-43
2021/12/09 10:17:11;;;;;;;56.08;46.35;;;22.60;55.80;;;;;;31632100;28;20393;-42
2021/12/09 10:32:25;;;;;;;41.95;35.55;;;22.50;55.10;;;;;;31607553;28;20056;-50
2021/12/09 11:03:16;;;;;;;35.25;29.65;;;23.10;55.60;;;;;;31539829;28;20124;-42
2021/12/09 11:18:37;;;;;;;32.60;27.52;;;23.00;55.60;;;;;;31610373;28;20079;-42
2021/12/09 11:33:44;;;;;;;34.28;28.10;;;22.90;56.10;;;;;;31548988;28;20067;-51
2021/12/09 11:48:46;;;;;;;31.70;25.73;;;22.70;56.10;;;;;;31670890;28;20036;-48
2021/12/09 12:20:14;;;;;;;27.70;21.15;;;22.90;56.20;;;;;;31569502;28;20045;-46
2021/12/09 12:50:27;;;;;;;24.55;19.88;;;23.00;56.20;;;;;;31528294;28;20086;-43
2021/12/09 13:05:51;;;;;;;24.35;18.40;;;22.90;56.30;;;;;;31504841;28;20044;-44
2021/12/09 13:20:53;;;;;;;20.10;17.75;;;22.70;56.60;;;;;;31559063;28;20063;-48
2021/12/09 14:06:51;;;;;;;15.55;13.95;;;23.10;56.30;;;;;;31521185;28;20076;-48
2021/12/09 14:21:54;;;;;;;18.03;14.03;;;23.00;56.30;;;;;;31621779;28;20073;-46
2021/12/09 14:37:01;;;;;;;18.77;14.00;;;22.90;56.80;;;;;;31567156;28;20048;-42
2021/12/09 14:52:05;;;;;;;16.55;13.27;;;22.70;57.20;;;;;;31684407;28;20057;-43
2021/12/09 15:07:46;;;;;;;13.73;11.80;;;22.70;57.50;;;;;;31614372;28;20043;-45
2021/12/09 15:23:07;;;;;;;;;;;23.00;57.70;;;;;;31603090;28;20049;-44
2021/12/09 15:38:22;;;;;;;14.07;11.80;;;23.10;57.20;;;;;;31572798;28;19920;-44
2021/12/09 15:53:24;;;;;;;15.88;10.38;;;23.00;57.00;;;;;;31606175;28;20056;-44
2021/12/09 16:08:27;;;;;;;15.48;11.23;;;22.90;57.10;;;;;;31238820;28;10000200;-45
2021/12/09 16:23:29;;;;;;;12.63;10.27;;;22.80;57.40;;;;;;31517190;28;20072;-49
2021/12/09 16:38:36;;;;;;;16.55;10.77;;;22.90;57.40;;;;;;31585621;28;20730;-54
2021/12/09 16:53:46;;;;;;;13.80;9.90;;;23.20;57.60;;;;;;31542630;28;20073;-44
2021/12/09 17:08:48;;;;;;;19.42;9.82;;;23.20;57.60;;;;;;31559384;28;20048;-42
2021/12/09 17:23:51;;;;;;;22.23;14.85;;;23.20;58.20;;;;;;31593723;28;20048;-39
2021/12/09 17:38:54;;;;;;;23.02;16.20;;;23.10;59.50;;;;;;31552457;28;20041;-61
2021/12/09 17:53:57;;;;;;;24.83;15.90;;;23.00;58.90;;;;;;31582232;28;20033;-47
2021/12/09 18:08:59;;;;;;;18.33;14.48;;;22.90;59.70;;;;;;31620944;28;20100;-51
2021/12/09 18:24:01;;;;;;;17.25;13.60;;;22.90;59.60;;;;;;31614871;28;20049;-51
2021/12/09 18:39:03;;;;;;;17.10;12.93;;;22.80;59.70;;;;;;31606301;28;20091;-45
2021/12/09 18:54:06;;;;;;;14.02;11.15;;;22.70;60.20;;;;;;31718883;28;20066;-44
2021/12/09 19:09:11;;;;;;;21.20;10.82;;;22.90;60.00;;;;;;31577370;28;20116;-47
2021/12/09 19:24:15;;;;;;;22.70;11.18;;;23.20;60.30;;;;;;31570435;28;20123;-41
2021/12/09 19:39:20;;;;;;;30.65;13.98;;;23.30;60.10;;;;;;31569937;28;20575;-42
2021/12/09 19:54:22;;;;;;;25.23;12.35;;;23.20;61.00;;;;;;31605826;28;20040;-42
2021/12/09 20:09:25;;;;;;;23.65;11.32;;;23.20;61.20;;;;;;31604906;28;20040;-45
2021/12/09 20:24:27;;;;;;;22.42;12.60;;;23.00;61.20;;;;;;31600343;28;20044;-41
2021/12/09 20:39:29;;;;;;;20.23;10.63;;;22.90;61.30;;;;;;31623019;28;20104;-42
2021/12/09 20:54:31;;;;;;;23.25;11.80;;;22.70;61.10;;;;;;31548056;28;20040;-42
2021/12/09 21:09:33;;;;;;;14.82;9.60;;;22.70;61.50;;;;;;31629782;28;20092;-36
2021/12/09 21:24:35;;;;;;;9.88;5.68;;;22.90;61.10;;;;;;31699733;28;20048;-36
2021/12/09 21:39:38;;;;;;;5.32;3.90;;;23.40;59.90;;;;;;31624346;28;20082;-37
2021/12/09 21:54:40;;;;;;;2.78;2.47;;;23.40;60.30;;;;;;31740282;28;20044;-37
2021/12/09 22:09:43;;;;;;;1.33;1.20;;;23.30;60.30;;;;;;31715636;28;20063;-36
2021/12/09 22:24:45;;;;;;;0.85;0.73;;;23.30;60.30;;;;;;31750178;28;20077;-37
2021/12/09 22:39:47;;;;;;;4.05;3.28;;;23.20;60.20;;;;;;31664475;28;20045;-38
2021/12/09 22:54:50;;;;;;;1.92;1.63;;;23.00;60.10;;;;;;31616490;28;20068;-39
2021/12/09 23:09:52;;;;;;;1.33;1.15;;;22.90;60.10;;;;;;31513285;28;20052;-37
2021/12/09 23:24:59;;;;;;;0.70;0.70;;;22.90;60.30;;;;;;31515006;28;20053;-38
2021/12/09 23:40:01;;;;;;;0.50;0.50;;;22.90;60.60;;;;;;31523448;28;20104;-36
2021/12/09 23:55:06;;;;;;;0.70;0.40;;;22.80;60.60;;;;;;31556127;28;20052;-45
